sensor_id;sensor_type;location;lat;lon;timestamp;temperature;humidity
13682;DHT22;6913;49.892;7.936;2023-07-31T00:00:08;19.20;99.90
13682;DHT22;6913;49.892;7.936;2023-07-31T00:02:37;19.20;99.90
13682;DHT22;6913;49.892;7.936;2023-07-31T00:05:04;19.20;99.90
13682;DHT22;6913;49.892;7.936;2023-07-31T00:07:32;19.20;99.90
13682;DHT22;6913;49.892;7.936;2023-07-31T00:09:59;19.40;99.90
13682;DHT22;6913;49.892;7.936;2023-07-31T00:12:25;19.20;99.90
13682;DHT22;6913;49.892;7.936;2023-07-31T00:14:52;19.10;99.90
13682;DHT22;6913;49.892;7.936;2023-07-31T00:17:19;19.30;99.90
13682;DHT22;6913;49.892;7.936;2023-07-31T00:19:47;19.20;99.90
13682;DHT22;6913;49.892;7.936;2023-07-31T00:22:16;19.10;99.90
13682;DHT22;6913;49.892;7.936;2023-07-31T00:24:43;19.40;99.90
13682;DHT22;6913;49.892;7.936;2023-07-31T00:27:09;19.20;99.90
13682;DHT22;6913;49.892;7.936;2023-07-31T00:29:36;19.20;99.90
13682;DHT22;6913;49.892;7.936;2023-07-31T00:32:03;19.10;99.90
13682;DHT22;6913;49.892;7.936;2023-07-31T00:34:30;19.20;99.90
13682;DHT22;6913;49.892;7.936;2023-07-31T00:36:58;19.50;99.90
13682;DHT22;6913;49.892;7.936;2023-07-31T00:39:25;19.20;99.90
13682;DHT22;6913;49.892;7.936;2023-07-31T00:41:52;19.20;99.90
13682;DHT22;6913;49.892;7.936;2023-07-31T00:44:19;19.20;99.90
13682;DHT22;6913;49.892;7.936;2023-07-31T00:46:45;19.30;99.90
13682;DHT22;6913;49.892;7.936;2023-07-31T00:49:13;19.40;99.90
13682;DHT22;6913;49.892;7.936;2023-07-31T00:51:40;19.50;99.90
13682;DHT22;6913;49.892;7.936;2023-07-31T00:54:08;19.30;99.90
13682;DHT22;6913;49.892;7.936;2023-07-31T00:56:35;19.50;99.90
13682;DHT22;6913;49.892;7.936;2023-07-31T00:59:03;19.50;99.90
13682;DHT22;6913;49.892;7.936;2023-07-31T01:01:29;19.20;99.90
13682;DHT22;6913;49.892;7.936;2023-07-31T01:03:56;19.20;99.90
13682;DHT22;6913;49.892;7.936;2023-07-31T01:06:30;19.50;99.90
13682;DHT22;6913;49.892;7.936;2023-07-31T01:09:02;19.30;99.90
13682;DHT22;6913;49.892;7.936;2023-07-31T01:11:34;19.10;99.90
13682;DHT22;6913;49.892;7.936;2023-07-31T01:14:05;19.10;99.90
13682;DHT22;6913;49.892;7.936;2023-07-31T01:16:32;19.20;99.90
13682;DHT22;6913;49.892;7.936;2023-07-31T01:18:59;19.20;99.90
13682;DHT22;6913;49.892;7.936;2023-07-31T01:21:43;19.30;99.90
13682;DHT22;6913;49.892;7.936;2023-07-31T01:24:21;19.20;99.90
13682;DHT22;6913;49.892;7.936;2023-07-31T01:26:55;19.10;99.90
13682;DHT22;6913;49.892;7.936;2023-07-31T01:29:29;19.20;99.90
13682;DHT22;6913;49.892;7.936;2023-07-31T01:32:02;19.10;99.90
13682;DHT22;6913;49.892;7.936;2023-07-31T01:34:29;19.20;99.90
13682;DHT22;6913;49.892;7.936;2023-07-31T01:36:56;19.10;99.90
13682;DHT22;6913;49.892;7.936;2023-07-31T01:39:24;19.10;99.90
13682;DHT22;6913;49.892;7.936;2023-07-31T01:41:52;19.10;99.90
13682;DHT22;6913;49.892;7.936;2023-07-31T01:44:19;19.10;99.90
13682;DHT22;6913;49.892;7.936;2023-07-31T01:46:46;19.00;99.90
13682;DHT22;6913;49.892;7.936;2023-07-31T01:49:13;19.00;99.90
13682;DHT22;6913;49.892;7.936;2023-07-31T01:51:40;19.10;99.90
13682;DHT22;6913;49.892;7.936;2023-07-31T01:54:06;19.10;99.90
13682;DHT22;6913;49.892;7.936;2023-07-31T01:56:33;19.10;99.90
13682;DHT22;6913;49.892;7.936;2023-07-31T01:59:02;19.10;99.90
13682;DHT22;6913;49.892;7.936;2023-07-31T02:01:28;19.00;99.90
13682;DHT22;6913;49.892;7.936;2023-07-31T02:03:55;19.00;99.90
13682;DHT22;6913;49.892;7.936;2023-07-31T02:06:23;19.10;99.90
13682;DHT22;6913;49.892;7.936;2023-07-31T02:08:50;19.00;99.90
13682;DHT22;6913;49.892;7.936;2023-07-31T02:11:17;19.10;99.90
13682;DHT22;6913;49.892;7.936;2023-07-31T02:13:43;19.00;99.90
13682;DHT22;6913;49.892;7.936;2023-07-31T02:16:12;19.00;99.90
13682;DHT22;6913;49.892;7.936;2023-07-31T02:18:39;19.00;99.90
13682;DHT22;6913;49.892;7.936;2023-07-31T02:21:05;18.90;99.90
13682;DHT22;6913;49.892;7.936;2023-07-31T02:23:32;18.90;99.90
13682;DHT22;6913;49.892;7.936;2023-07-31T02:25:59;18.90;99.90
13682;DHT22;6913;49.892;7.936;2023-07-31T02:28:26;18.90;99.90
13682;DHT22;6913;49.892;7.936;2023-07-31T02:30:53;18.90;99.90
13682;DHT22;6913;49.892;7.936;2023-07-31T02:33:21;18.80;99.90
13682;DHT22;6913;49.892;7.936;2023-07-31T02:35:48;18.90;99.90
13682;DHT22;6913;49.892;7.936;2023-07-31T02:38:15;18.80;99.90
13682;DHT22;6913;49.892;7.936;2023-07-31T02:40:42;18.80;99.90
13682;DHT22;6913;49.892;7.936;2023-07-31T02:43:09;18.80;99.90
13682;DHT22;6913;49.892;7.936;2023-07-31T02:45:36;18.60;99.90
13682;DHT22;6913;49.892;7.936;2023-07-31T02:48:03;18.70;99.90
13682;DHT22;6913;49.892;7.936;2023-07-31T02:50:31;18.70;99.90
13682;DHT22;6913;49.892;7.936;2023-07-31T02:52:58;18.60;99.90
13682;DHT22;6913;49.892;7.936;2023-07-31T02:55:25;18.60;99.90
13682;DHT22;6913;49.892;7.936;2023-07-31T02:57:52;18.60;99.90
13682;DHT22;6913;49.892;7.936;2023-07-31T03:00:19;18.70;99.90
13682;DHT22;6913;49.892;7.936;2023-07-31T03:02:46;18.70;99.90
13682;DHT22;6913;49.892;7.936;2023-07-31T03:05:13;18.60;99.90
13682;DHT22;6913;49.892;7.936;2023-07-31T03:07:41;18.80;99.90
13682;DHT22;6913;49.892;7.936;2023-07-31T03:10:08;18.70;99.90
13682;DHT22;6913;49.892;7.936;2023-07-31T03:12:35;18.50;99.90
13682;DHT22;6913;49.892;7.936;2023-07-31T03:15:03;18.20;99.90
13682;DHT22;6913;49.892;7.936;2023-07-31T03:17:30;18.00;99.90
13682;DHT22;6913;49.892;7.936;2023-07-31T03:19:56;17.90;99.90
13682;DHT22;6913;49.892;7.936;2023-07-31T03:22:23;17.90;99.90
13682;DHT22;6913;49.892;7.936;2023-07-31T03:24:52;18.00;99.90
13682;DHT22;6913;49.892;7.936;2023-07-31T03:27:19;17.90;99.90
13682;DHT22;6913;49.892;7.936;2023-07-31T03:29:45;17.70;99.90
13682;DHT22;6913;49.892;7.936;2023-07-31T03:32:12;17.60;99.90
13682;DHT22;6913;49.892;7.936;2023-07-31T03:34:39;17.40;99.90
13682;DHT22;6913;49.892;7.936;2023-07-31T03:37:06;17.50;99.90
13682;DHT22;6913;49.892;7.936;2023-07-31T03:39:34;17.60;99.90
13682;DHT22;6913;49.892;7.936;2023-07-31T03:42:03;17.60;99.90
13682;DHT22;6913;49.892;7.936;2023-07-31T03:44:30;17.50;99.90
13682;DHT22;6913;49.892;7.936;2023-07-31T03:46:57;17.60;99.90
13682;DHT22;6913;49.892;7.936;2023-07-31T03:49:24;17.80;99.90
13682;DHT22;6913;49.892;7.936;2023-07-31T03:51:51;17.70;99.90
13682;DHT22;6913;49.892;7.936;2023-07-31T03:54:17;17.50;99.90
13682;DHT22;6913;49.892;7.936;2023-07-31T03:56:44;17.70;99.90
13682;DHT22;6913;49.892;7.936;2023-07-31T03:59:12;17.70;99.90
13682;DHT22;6913;49.892;7.936;2023-07-31T04:01:39;17.80;99.90
13682;DHT22;6913;49.892;7.936;2023-07-31T04:04:07;17.80;99.90
13682;DHT22;6913;49.892;7.936;2023-07-31T04:06:34;18.00;99.90
13682;DHT22;6913;49.892;7.936;2023-07-31T04:09:02;18.10;99.90
13682;DHT22;6913;49.892;7.936;2023-07-31T04:11:29;18.10;99.90
13682;DHT22;6913;49.892;7.936;2023-07-31T04:13:55;18.20;99.90
13682;DHT22;6913;49.892;7.936;2023-07-31T04:16:24;18.20;99.90
13682;DHT22;6913;49.892;7.936;2023-07-31T04:18:51;18.10;99.90
13682;DHT22;6913;49.892;7.936;2023-07-31T04:21:18;18.10;99.90
13682;DHT22;6913;49.892;7.936;2023-07-31T04:23:45;18.00;99.90
13682;DHT22;6913;49.892;7.936;2023-07-31T04:26:11;18.00;99.90
13682;DHT22;6913;49.892;7.936;2023-07-31T04:28:38;18.00;99.90
13682;DHT22;6913;49.892;7.936;2023-07-31T04:31:05;18.00;99.90
13682;DHT22;6913;49.892;7.936;2023-07-31T04:33:33;18.10;99.90
13682;DHT22;6913;49.892;7.936;2023-07-31T04:36:00;18.20;99.90
13682;DHT22;6913;49.892;7.936;2023-07-31T04:38:27;18.20;99.90
13682;DHT22;6913;49.892;7.936;2023-07-31T04:40:54;18.20;99.90
13682;DHT22;6913;49.892;7.936;2023-07-31T04:43:21;18.30;99.90
13682;DHT22;6913;49.892;7.936;2023-07-31T04:45:48;18.30;99.90
13682;DHT22;6913;49.892;7.936;2023-07-31T04:48:16;18.30;99.90
13682;DHT22;6913;49.892;7.936;2023-07-31T04:50:44;18.30;99.90
13682;DHT22;6913;49.892;7.936;2023-07-31T04:53:11;18.30;99.90
13682;DHT22;6913;49.892;7.936;2023-07-31T04:55:38;18.30;99.90
13682;DHT22;6913;49.892;7.936;2023-07-31T04:58:05;18.40;99.90
13682;DHT22;6913;49.892;7.936;2023-07-31T05:00:32;18.40;99.90
13682;DHT22;6913;49.892;7.936;2023-07-31T05:02:59;18.40;99.90
13682;DHT22;6913;49.892;7.936;2023-07-31T05:05:26;18.40;99.90
13682;DHT22;6913;49.892;7.936;2023-07-31T05:07:54;18.40;99.90
13682;DHT22;6913;49.892;7.936;2023-07-31T05:10:21;18.30;99.90
13682;DHT22;6913;49.892;7.936;2023-07-31T05:12:48;18.30;99.90
13682;DHT22;6913;49.892;7.936;2023-07-31T05:15:14;18.30;99.90
13682;DHT22;6913;49.892;7.936;2023-07-31T05:17:41;18.40;99.90
13682;DHT22;6913;49.892;7.936;2023-07-31T05:20:09;18.40;99.90
13682;DHT22;6913;49.892;7.936;2023-07-31T05:22:36;18.40;99.90
13682;DHT22;6913;49.892;7.936;2023-07-31T05:25:05;18.40;99.90
13682;DHT22;6913;49.892;7.936;2023-07-31T05:27:32;18.50;99.90
13682;DHT22;6913;49.892;7.936;2023-07-31T05:29:59;18.60;99.90
13682;DHT22;6913;49.892;7.936;2023-07-31T05:32:26;18.60;99.90
13682;DHT22;6913;49.892;7.936;2023-07-31T05:34:53;18.70;99.90
13682;DHT22;6913;49.892;7.936;2023-07-31T05:37:20;18.80;99.90
13682;DHT22;6913;49.892;7.936;2023-07-31T05:39:47;18.70;99.90
13682;DHT22;6913;49.892;7.936;2023-07-31T05:42:15;18.80;99.90
13682;DHT22;6913;49.892;7.936;2023-07-31T05:44:42;18.90;99.90
13682;DHT22;6913;49.892;7.936;2023-07-31T05:47:09;18.80;99.90
13682;DHT22;6913;49.892;7.936;2023-07-31T05:49:36;18.80;99.90
13682;DHT22;6913;49.892;7.936;2023-07-31T05:52:04;18.90;99.90
13682;DHT22;6913;49.892;7.936;2023-07-31T05:54:32;19.00;99.90
13682;DHT22;6913;49.892;7.936;2023-07-31T05:56:59;19.00;99.90
13682;DHT22;6913;49.892;7.936;2023-07-31T05:59:27;19.10;99.90
13682;DHT22;6913;49.892;7.936;2023-07-31T06:01:54;19.30;99.90
13682;DHT22;6913;49.892;7.936;2023-07-31T06:04:21;19.30;99.90
13682;DHT22;6913;49.892;7.936;2023-07-31T06:06:51;19.50;99.90
13682;DHT22;6913;49.892;7.936;2023-07-31T06:09:17;19.60;99.90
13682;DHT22;6913;49.892;7.936;2023-07-31T06:11:45;19.70;99.90
13682;DHT22;6913;49.892;7.936;2023-07-31T06:14:12;19.70;99.90
13682;DHT22;6913;49.892;7.936;2023-07-31T06:16:41;19.80;99.90
13682;DHT22;6913;49.892;7.936;2023-07-31T06:19:09;19.80;99.90
13682;DHT22;6913;49.892;7.936;2023-07-31T06:21:36;19.80;99.90
13682;DHT22;6913;49.892;7.936;2023-07-31T06:24:04;19.80;99.90
13682;DHT22;6913;49.892;7.936;2023-07-31T06:26:31;19.80;99.90
13682;DHT22;6913;49.892;7.936;2023-07-31T06:28:58;19.80;99.90
13682;DHT22;6913;49.892;7.936;2023-07-31T06:31:24;20.00;99.90
13682;DHT22;6913;49.892;7.936;2023-07-31T06:33:53;20.50;99.90
13682;DHT22;6913;49.892;7.936;2023-07-31T06:36:20;21.00;99.90
13682;DHT22;6913;49.892;7.936;2023-07-31T06:38:47;21.60;99.90
13682;DHT22;6913;49.892;7.936;2023-07-31T06:41:14;22.00;99.90
13682;DHT22;6913;49.892;7.936;2023-07-31T06:43:41;21.80;99.90
13682;DHT22;6913;49.892;7.936;2023-07-31T06:46:08;21.60;99.90
13682;DHT22;6913;49.892;7.936;2023-07-31T06:48:35;21.40;99.90
13682;DHT22;6913;49.892;7.936;2023-07-31T06:51:04;21.20;99.90
13682;DHT22;6913;49.892;7.936;2023-07-31T06:53:31;21.00;99.90
13682;DHT22;6913;49.892;7.936;2023-07-31T06:55:58;21.00;99.90
13682;DHT22;6913;49.892;7.936;2023-07-31T06:58:25;21.10;99.90
13682;DHT22;6913;49.892;7.936;2023-07-31T07:00:52;21.10;99.90
13682;DHT22;6913;49.892;7.936;2023-07-31T07:03:19;21.20;99.90
13682;DHT22;6913;49.892;7.936;2023-07-31T07:05:46;21.20;99.90
13682;DHT22;6913;49.892;7.936;2023-07-31T07:08:14;21.70;99.90
13682;DHT22;6913;49.892;7.936;2023-07-31T07:10:42;22.10;99.90
13682;DHT22;6913;49.892;7.936;2023-07-31T07:13:09;22.30;99.90
13682;DHT22;6913;49.892;7.936;2023-07-31T07:15:36;22.70;99.90
13682;DHT22;6913;49.892;7.936;2023-07-31T07:18:03;22.80;99.90
13682;DHT22;6913;49.892;7.936;2023-07-31T07:20:30;22.80;99.90
13682;DHT22;6913;49.892;7.936;2023-07-31T07:22:57;22.90;99.90
13682;DHT22;6913;49.892;7.936;2023-07-31T07:25:25;22.50;99.90
13682;DHT22;6913;49.892;7.936;2023-07-31T07:27:52;22.80;99.90
13682;DHT22;6913;49.892;7.936;2023-07-31T07:30:19;22.60;99.90
13682;DHT22;6913;49.892;7.936;2023-07-31T07:32:46;22.50;99.90
13682;DHT22;6913;49.892;7.936;2023-07-31T07:35:13;22.30;99.90
13682;DHT22;6913;49.892;7.936;2023-07-31T07:37:39;22.10;99.90
13682;DHT22;6913;49.892;7.936;2023-07-31T07:40:07;22.10;99.90
13682;DHT22;6913;49.892;7.936;2023-07-31T07:42:36;21.90;99.90
13682;DHT22;6913;49.892;7.936;2023-07-31T07:45:04;21.90;99.90
13682;DHT22;6913;49.892;7.936;2023-07-31T07:47:31;22.00;99.90
13682;DHT22;6913;49.892;7.936;2023-07-31T07:49:57;22.20;99.90
13682;DHT22;6913;49.892;7.936;2023-07-31T07:52:24;22.20;99.90
13682;DHT22;6913;49.892;7.936;2023-07-31T07:54:51;22.30;99.90
13682;DHT22;6913;49.892;7.936;2023-07-31T07:57:18;22.30;99.90
13682;DHT22;6913;49.892;7.936;2023-07-31T07:59:46;22.30;99.90
13682;DHT22;6913;49.892;7.936;2023-07-31T08:02:13;22.40;99.90
13682;DHT22;6913;49.892;7.936;2023-07-31T08:04:40;22.60;99.90
13682;DHT22;6913;49.892;7.936;2023-07-31T08:07:07;22.60;99.90
13682;DHT22;6913;49.892;7.936;2023-07-31T08:09:34;22.30;99.90
13682;DHT22;6913;49.892;7.936;2023-07-31T08:12:01;21.80;99.90
13682;DHT22;6913;49.892;7.936;2023-07-31T08:14:29;22.00;99.90
13682;DHT22;6913;49.892;7.936;2023-07-31T08:16:57;22.00;99.90
13682;DHT22;6913;49.892;7.936;2023-07-31T08:19:24;22.00;99.90
13682;DHT22;6913;49.892;7.936;2023-07-31T08:21:51;21.80;99.90
13682;DHT22;6913;49.892;7.936;2023-07-31T08:24:18;21.80;99.90
13682;DHT22;6913;49.892;7.936;2023-07-31T08:26:45;21.80;99.90
13682;DHT22;6913;49.892;7.936;2023-07-31T08:29:12;22.00;99.90
13682;DHT22;6913;49.892;7.936;2023-07-31T08:31:39;22.00;99.90
13682;DHT22;6913;49.892;7.936;2023-07-31T08:34:07;22.00;99.90
13682;DHT22;6913;49.892;7.936;2023-07-31T08:36:34;22.00;99.90
13682;DHT22;6913;49.892;7.936;2023-07-31T08:39:01;21.90;99.90
13682;DHT22;6913;49.892;7.936;2023-07-31T08:41:29;21.80;99.90
13682;DHT22;6913;49.892;7.936;2023-07-31T08:43:56;22.00;99.90
13682;DHT22;6913;49.892;7.936;2023-07-31T08:46:24;22.00;99.90
13682;DHT22;6913;49.892;7.936;2023-07-31T08:48:52;22.00;99.90
13682;DHT22;6913;49.892;7.936;2023-07-31T08:51:21;22.10;99.90
13682;DHT22;6913;49.892;7.936;2023-07-31T08:53:48;22.10;99.90
13682;DHT22;6913;49.892;7.936;2023-07-31T08:56:15;22.20;99.90
13682;DHT22;6913;49.892;7.936;2023-07-31T08:58:43;22.40;99.90
13682;DHT22;6913;49.892;7.936;2023-07-31T09:01:11;22.40;99.90
13682;DHT22;6913;49.892;7.936;2023-07-31T09:03:39;22.30;99.90
13682;DHT22;6913;49.892;7.936;2023-07-31T09:06:07;22.20;99.90
13682;DHT22;6913;49.892;7.936;2023-07-31T09:08:39;22.30;99.90
13682;DHT22;6913;49.892;7.936;2023-07-31T09:11:08;22.40;99.90
13682;DHT22;6913;49.892;7.936;2023-07-31T09:13:35;22.60;99.90
13682;DHT22;6913;49.892;7.936;2023-07-31T09:16:03;22.60;99.90
13682;DHT22;6913;49.892;7.936;2023-07-31T09:18:30;22.70;99.90
13682;DHT22;6913;49.892;7.936;2023-07-31T09:21:01;22.70;99.90
13682;DHT22;6913;49.892;7.936;2023-07-31T09:23:41;22.70;99.90
13682;DHT22;6913;49.892;7.936;2023-07-31T09:26:08;22.80;99.90
13682;DHT22;6913;49.892;7.936;2023-07-31T09:28:36;22.70;99.90
13682;DHT22;6913;49.892;7.936;2023-07-31T09:31:03;22.90;99.90
13682;DHT22;6913;49.892;7.936;2023-07-31T09:33:30;23.00;99.90
13682;DHT22;6913;49.892;7.936;2023-07-31T09:35:59;23.30;99.90
13682;DHT22;6913;49.892;7.936;2023-07-31T09:38:27;23.30;99.90
13682;DHT22;6913;49.892;7.936;2023-07-31T09:40:55;23.10;99.90
13682;DHT22;6913;49.892;7.936;2023-07-31T09:43:25;22.90;99.90
13682;DHT22;6913;49.892;7.936;2023-07-31T09:45:55;23.00;99.90
13682;DHT22;6913;49.892;7.936;2023-07-31T09:48:23;23.00;99.90
13682;DHT22;6913;49.892;7.936;2023-07-31T09:50:53;22.90;99.90
13682;DHT22;6913;49.892;7.936;2023-07-31T09:53:28;22.80;99.90
13682;DHT22;6913;49.892;7.936;2023-07-31T09:55:58;22.70;99.90
13682;DHT22;6913;49.892;7.936;2023-07-31T09:58:28;22.70;99.90
13682;DHT22;6913;49.892;7.936;2023-07-31T10:00:57;22.50;99.90
13682;DHT22;6913;49.892;7.936;2023-07-31T10:03:25;22.50;99.90
13682;DHT22;6913;49.892;7.936;2023-07-31T10:05:53;22.70;99.90
13682;DHT22;6913;49.892;7.936;2023-07-31T10:08:23;22.70;99.90
13682;DHT22;6913;49.892;7.936;2023-07-31T10:10:52;22.80;99.90
13682;DHT22;6913;49.892;7.936;2023-07-31T10:13:20;23.00;99.90
13682;DHT22;6913;49.892;7.936;2023-07-31T10:15:48;23.10;99.90
13682;DHT22;6913;49.892;7.936;2023-07-31T10:18:16;23.20;99.90
13682;DHT22;6913;49.892;7.936;2023-07-31T10:20:44;23.20;99.90
13682;DHT22;6913;49.892;7.936;2023-07-31T10:23:12;23.10;99.90
13682;DHT22;6913;49.892;7.936;2023-07-31T10:25:40;23.10;99.90
13682;DHT22;6913;49.892;7.936;2023-07-31T10:28:08;23.00;99.90
13682;DHT22;6913;49.892;7.936;2023-07-31T10:30:38;22.90;99.90
13682;DHT22;6913;49.892;7.936;2023-07-31T10:33:06;22.90;99.90
13682;DHT22;6913;49.892;7.936;2023-07-31T10:35:33;22.90;99.90
13682;DHT22;6913;49.892;7.936;2023-07-31T10:38:10;23.00;99.90
13682;DHT22;6913;49.892;7.936;2023-07-31T10:40:38;23.20;99.90
13682;DHT22;6913;49.892;7.936;2023-07-31T10:43:05;23.20;99.90
13682;DHT22;6913;49.892;7.936;2023-07-31T10:45:35;23.10;99.90
13682;DHT22;6913;49.892;7.936;2023-07-31T10:48:05;23.30;99.90
13682;DHT22;6913;49.892;7.936;2023-07-31T10:50:37;23.40;99.90
13682;DHT22;6913;49.892;7.936;2023-07-31T10:53:04;23.40;99.90
13682;DHT22;6913;49.892;7.936;2023-07-31T10:55:33;23.50;99.90
13682;DHT22;6913;49.892;7.936;2023-07-31T10:58:06;23.80;99.90
13682;DHT22;6913;49.892;7.936;2023-07-31T11:00:34;23.70;99.90
13682;DHT22;6913;49.892;7.936;2023-07-31T11:03:05;23.90;99.90
13682;DHT22;6913;49.892;7.936;2023-07-31T11:05:45;23.90;99.90
13682;DHT22;6913;49.892;7.936;2023-07-31T11:08:13;24.10;99.90
13682;DHT22;6913;49.892;7.936;2023-07-31T11:10:40;24.10;99.90
13682;DHT22;6913;49.892;7.936;2023-07-31T11:13:07;24.10;99.90
13682;DHT22;6913;49.892;7.936;2023-07-31T11:15:34;24.20;99.90
13682;DHT22;6913;49.892;7.936;2023-07-31T11:18:01;24.30;99.90
13682;DHT22;6913;49.892;7.936;2023-07-31T11:20:33;24.30;99.90
13682;DHT22;6913;49.892;7.936;2023-07-31T11:23:01;24.30;99.90
13682;DHT22;6913;49.892;7.936;2023-07-31T11:25:29;24.40;99.90
13682;DHT22;6913;49.892;7.936;2023-07-31T11:27:57;24.60;99.90
13682;DHT22;6913;49.892;7.936;2023-07-31T11:30:24;25.30;99.90
13682;DHT22;6913;49.892;7.936;2023-07-31T11:32:51;25.80;99.90
13682;DHT22;6913;49.892;7.936;2023-07-31T11:35:18;26.00;99.90
13682;DHT22;6913;49.892;7.936;2023-07-31T11:37:46;25.90;99.90
13682;DHT22;6913;49.892;7.936;2023-07-31T11:40:14;25.80;99.90
13682;DHT22;6913;49.892;7.936;2023-07-31T11:42:41;25.30;99.90
13682;DHT22;6913;49.892;7.936;2023-07-31T11:45:09;25.20;99.90
13682;DHT22;6913;49.892;7.936;2023-07-31T11:47:37;24.90;99.90
13682;DHT22;6913;49.892;7.936;2023-07-31T11:50:05;24.70;99.90
13682;DHT22;6913;49.892;7.936;2023-07-31T11:52:35;24.30;99.90
13682;DHT22;6913;49.892;7.936;2023-07-31T11:55:05;24.10;99.90
13682;DHT22;6913;49.892;7.936;2023-07-31T11:57:35;23.90;99.90
13682;DHT22;6913;49.892;7.936;2023-07-31T12:00:04;23.80;99.90
13682;DHT22;6913;49.892;7.936;2023-07-31T12:02:32;23.80;99.90
13682;DHT22;6913;49.892;7.936;2023-07-31T12:04:59;23.90;99.90
13682;DHT22;6913;49.892;7.936;2023-07-31T12:07:26;24.00;99.90
13682;DHT22;6913;49.892;7.936;2023-07-31T12:09:54;24.20;99.90
13682;DHT22;6913;49.892;7.936;2023-07-31T12:12:24;24.30;99.90
13682;DHT22;6913;49.892;7.936;2023-07-31T12:14:51;24.30;99.90
13682;DHT22;6913;49.892;7.936;2023-07-31T12:17:19;24.70;99.90
13682;DHT22;6913;49.892;7.936;2023-07-31T12:19:48;24.80;99.90
13682;DHT22;6913;49.892;7.936;2023-07-31T12:22:16;24.60;99.90
13682;DHT22;6913;49.892;7.936;2023-07-31T12:24:44;24.70;99.90
13682;DHT22;6913;49.892;7.936;2023-07-31T12:27:11;25.00;99.90
13682;DHT22;6913;49.892;7.936;2023-07-31T12:29:41;25.20;99.90
13682;DHT22;6913;49.892;7.936;2023-07-31T12:32:21;25.60;99.90
13682;DHT22;6913;49.892;7.936;2023-07-31T12:34:49;25.80;99.90
13682;DHT22;6913;49.892;7.936;2023-07-31T12:37:16;26.10;99.90
13682;DHT22;6913;49.892;7.936;2023-07-31T12:39:43;26.10;99.90
13682;DHT22;6913;49.892;7.936;2023-07-31T12:42:10;26.10;99.90
13682;DHT22;6913;49.892;7.936;2023-07-31T12:44:37;25.90;99.90
13682;DHT22;6913;49.892;7.936;2023-07-31T12:47:06;25.70;99.90
13682;DHT22;6913;49.892;7.936;2023-07-31T12:49:32;25.30;99.90
13682;DHT22;6913;49.892;7.936;2023-07-31T12:51:59;25.10;99.90
13682;DHT22;6913;49.892;7.936;2023-07-31T12:54:26;25.10;99.90
13682;DHT22;6913;49.892;7.936;2023-07-31T12:56:53;25.00;99.90
13682;DHT22;6913;49.892;7.936;2023-07-31T12:59:20;25.00;99.90
13682;DHT22;6913;49.892;7.936;2023-07-31T13:01:47;25.20;99.90
13682;DHT22;6913;49.892;7.936;2023-07-31T13:04:15;25.50;99.90
13682;DHT22;6913;49.892;7.936;2023-07-31T13:06:42;25.50;99.90
13682;DHT22;6913;49.892;7.936;2023-07-31T13:09:09;25.50;99.90
13682;DHT22;6913;49.892;7.936;2023-07-31T13:11:36;25.70;99.90
13682;DHT22;6913;49.892;7.936;2023-07-31T13:14:03;25.60;99.90
13682;DHT22;6913;49.892;7.936;2023-07-31T13:16:30;25.50;99.90
13682;DHT22;6913;49.892;7.936;2023-07-31T13:18:57;25.20;99.90
13682;DHT22;6913;49.892;7.936;2023-07-31T13:21:25;24.80;99.90
13682;DHT22;6913;49.892;7.936;2023-07-31T13:23:52;24.50;99.90
13682;DHT22;6913;49.892;7.936;2023-07-31T13:26:19;24.40;99.90
13682;DHT22;6913;49.892;7.936;2023-07-31T13:28:46;24.30;99.90
13682;DHT22;6913;49.892;7.936;2023-07-31T13:31:12;24.20;99.90
13682;DHT22;6913;49.892;7.936;2023-07-31T13:33:39;24.00;99.90
13682;DHT22;6913;49.892;7.936;2023-07-31T13:36:06;24.00;99.90
13682;DHT22;6913;49.892;7.936;2023-07-31T13:38:34;23.80;99.90
13682;DHT22;6913;49.892;7.936;2023-07-31T13:41:01;23.70;99.90
13682;DHT22;6913;49.892;7.936;2023-07-31T13:43:28;23.50;99.90
13682;DHT22;6913;49.892;7.936;2023-07-31T13:45:55;23.40;99.90
13682;DHT22;6913;49.892;7.936;2023-07-31T13:48:22;23.40;99.90
13682;DHT22;6913;49.892;7.936;2023-07-31T13:50:49;23.40;99.90
13682;DHT22;6913;49.892;7.936;2023-07-31T13:53:16;23.40;99.90
13682;DHT22;6913;49.892;7.936;2023-07-31T13:55:44;23.40;99.90
13682;DHT22;6913;49.892;7.936;2023-07-31T13:58:11;23.50;99.90
13682;DHT22;6913;49.892;7.936;2023-07-31T14:00:38;23.50;99.90
13682;DHT22;6913;49.892;7.936;2023-07-31T14:03:05;23.40;99.90
13682;DHT22;6913;49.892;7.936;2023-07-31T14:05:32;23.40;99.90
13682;DHT22;6913;49.892;7.936;2023-07-31T14:07:59;23.50;99.90
13682;DHT22;6913;49.892;7.936;2023-07-31T14:10:25;23.50;99.90
13682;DHT22;6913;49.892;7.936;2023-07-31T14:12:54;23.60;99.90
13682;DHT22;6913;49.892;7.936;2023-07-31T14:15:20;23.50;99.90
13682;DHT22;6913;49.892;7.936;2023-07-31T14:17:47;23.40;99.90
13682;DHT22;6913;49.892;7.936;2023-07-31T14:20:14;23.30;99.90
13682;DHT22;6913;49.892;7.936;2023-07-31T14:22:41;23.30;99.90
13682;DHT22;6913;49.892;7.936;2023-07-31T14:25:08;23.20;99.90
13682;DHT22;6913;49.892;7.936;2023-07-31T14:27:35;23.20;99.90
13682;DHT22;6913;49.892;7.936;2023-07-31T14:30:05;23.20;99.90
13682;DHT22;6913;49.892;7.936;2023-07-31T14:32:32;23.10;99.90
13682;DHT22;6913;49.892;7.936;2023-07-31T14:34:59;23.10;99.90
13682;DHT22;6913;49.892;7.936;2023-07-31T14:37:26;23.20;99.90
13682;DHT22;6913;49.892;7.936;2023-07-31T14:39:54;23.20;99.90
13682;DHT22;6913;49.892;7.936;2023-07-31T14:42:21;23.10;99.90
13682;DHT22;6913;49.892;7.936;2023-07-31T14:44:48;23.10;99.90
13682;DHT22;6913;49.892;7.936;2023-07-31T14:47:16;23.20;99.90
13682;DHT22;6913;49.892;7.936;2023-07-31T14:49:43;23.10;99.90
13682;DHT22;6913;49.892;7.936;2023-07-31T14:52:10;23.30;99.90
13682;DHT22;6913;49.892;7.936;2023-07-31T14:54:37;23.30;99.90
13682;DHT22;6913;49.892;7.936;2023-07-31T14:57:05;23.40;99.90
13682;DHT22;6913;49.892;7.936;2023-07-31T14:59:32;23.20;99.90
13682;DHT22;6913;49.892;7.936;2023-07-31T15:01:59;23.40;99.90
13682;DHT22;6913;49.892;7.936;2023-07-31T15:04:27;23.30;99.90
13682;DHT22;6913;49.892;7.936;2023-07-31T15:06:54;23.40;99.90
13682;DHT22;6913;49.892;7.936;2023-07-31T15:09:21;23.40;99.90
13682;DHT22;6913;49.892;7.936;2023-07-31T15:11:48;23.30;99.90
13682;DHT22;6913;49.892;7.936;2023-07-31T15:14:15;23.20;99.90
13682;DHT22;6913;49.892;7.936;2023-07-31T15:16:42;23.10;99.90
13682;DHT22;6913;49.892;7.936;2023-07-31T15:19:09;22.90;99.90
13682;DHT22;6913;49.892;7.936;2023-07-31T15:21:38;22.90;99.90
13682;DHT22;6913;49.892;7.936;2023-07-31T15:24:05;22.80;99.90
13682;DHT22;6913;49.892;7.936;2023-07-31T15:26:32;22.70;99.90
13682;DHT22;6913;49.892;7.936;2023-07-31T15:29:01;22.70;99.90
13682;DHT22;6913;49.892;7.936;2023-07-31T15:31:31;22.70;99.90
13682;DHT22;6913;49.892;7.936;2023-07-31T15:33:58;22.60;99.90
13682;DHT22;6913;49.892;7.936;2023-07-31T15:36:24;22.70;99.90
13682;DHT22;6913;49.892;7.936;2023-07-31T15:38:53;22.70;99.90
13682;DHT22;6913;49.892;7.936;2023-07-31T15:41:19;22.60;99.90
13682;DHT22;6913;49.892;7.936;2023-07-31T15:43:46;22.50;99.90
13682;DHT22;6913;49.892;7.936;2023-07-31T15:46:13;22.50;99.90